createdAt,value
2018-01-13T00:00:05.662Z,30.92
2018-01-13T00:02:33.660Z,30.77
2018-01-13T00:05:01.706Z,30.02
2018-01-13T00:07:29.753Z,30.73
2018-01-13T00:09:57.754Z,29.83
2018-01-13T00:12:25.797Z,32.15
2018-01-13T00:14:53.822Z,30.88
2018-01-13T00:17:21.829Z,29.10
2018-01-13T00:19:50.134Z,28.80
2018-01-13T00:22:18.154Z,32.63
2018-01-13T00:24:46.921Z,30.98
2018-01-13T00:27:14.972Z,32.35
2018-01-13T00:29:42.991Z,29.17
2018-01-13T00:32:11.766Z,29.92
2018-01-13T00:34:39.794Z,31.17
2018-01-13T00:37:07.890Z,30.50
2018-01-13T00:39:35.890Z,30.50
2018-01-13T00:42:04.650Z,30.52
2018-01-13T00:44:32.671Z,29.97
2018-01-13T00:47:00.678Z,30.27
2018-01-13T00:49:28.675Z,29.98
2018-01-13T00:51:56.702Z,29.67
2018-01-13T00:54:24.682Z,30.02
2018-01-13T00:56:52.712Z,30.60
2018-01-13T00:59:20.718Z,28.70
2018-01-13T01:01:48.743Z,30.42
2018-01-13T01:04:17.491Z,29.73
2018-01-13T01:06:45.506Z,28.70
2018-01-13T01:09:13.558Z,29.12
2018-01-13T01:11:42.314Z,29.17
2018-01-13T01:14:11.055Z,29.15
2018-01-13T01:16:39.070Z,29.95
2018-01-13T01:19:07.101Z,29.95
2018-01-13T01:21:35.121Z,30.58
2018-01-13T01:24:03.151Z,27.60
2018-01-13T01:26:31.174Z,31.00
2018-01-13T01:28:59.936Z,31.08
2018-01-13T01:31:27.937Z,28.08
2018-01-13T01:33:56.786Z,28.20
2018-01-13T01:36:24.821Z,29.05
2018-01-13T01:38:52.882Z,28.70
2018-01-13T01:41:21.682Z,29.77
2018-01-13T01:43:49.701Z,28.40
2018-01-13T01:46:17.711Z,28.65
2018-01-13T01:48:45.734Z,28.80
2018-01-13T01:51:13.747Z,27.87
2018-01-13T01:53:42.558Z,29.20
2018-01-13T01:56:10.577Z,28.30
2018-01-13T01:58:38.574Z,27.23
2018-01-13T02:01:07.316Z,28.62
2018-01-13T02:03:35.344Z,29.15
2018-01-13T02:06:03.362Z,27.60
2018-01-13T02:08:31.433Z,29.67
2018-01-13T02:10:59.446Z,28.08
2018-01-13T02:13:27.449Z,30.02
2018-01-13T02:15:55.472Z,28.40
2018-01-13T02:18:24.250Z,26.48
2018-01-13T02:20:53.033Z,30.50
2018-01-13T02:23:21.099Z,28.00
2018-01-13T02:25:49.124Z,30.88
2018-01-13T02:28:17.129Z,26.77
2018-01-13T02:30:45.153Z,28.92
2018-01-13T02:33:13.145Z,28.50
2018-01-13T02:35:41.223Z,28.98
2018-01-13T02:38:09.225Z,28.45
2018-01-13T02:40:37.242Z,29.45
2018-01-13T02:43:05.258Z,29.65
2018-01-13T02:45:33.236Z,29.58
2018-01-13T02:48:01.282Z,27.55
2018-01-13T02:50:29.295Z,28.95
2018-01-13T02:52:58.073Z,27.13
2018-01-13T02:55:26.847Z,29.83
2018-01-13T02:57:54.902Z,28.48
2018-01-13T03:00:22.900Z,27.90
2018-01-13T03:02:51.702Z,28.00
2018-01-13T03:05:20.475Z,29.65
2018-01-13T03:07:49.290Z,28.15
2018-01-13T03:10:17.298Z,28.77
2018-01-13T03:12:45.309Z,28.95
2018-01-13T03:15:14.105Z,29.67
2018-01-13T03:17:42.889Z,29.58
2018-01-13T03:20:11.666Z,31.95
2018-01-13T03:22:40.430Z,28.25
2018-01-13T03:25:08.436Z,28.60
2018-01-13T03:27:37.207Z,28.73
2018-01-13T03:30:05.974Z,28.48
2018-01-13T03:32:33.982Z,29.83
2018-01-13T03:35:02.766Z,26.15
2018-01-13T03:37:31.550Z,28.90
2018-01-13T03:40:00.300Z,28.42
2018-01-13T03:42:29.098Z,30.80
2018-01-13T03:44:57.063Z,29.85
2018-01-13T03:47:25.093Z,27.87
2018-01-13T03:49:53.151Z,28.40
2018-01-13T03:52:21.173Z,30.05
2018-01-13T03:54:49.184Z,29.23
2018-01-13T03:57:17.201Z,29.37
2018-01-13T03:59:45.218Z,28.90
2018-01-13T04:02:14.031Z,28.40
2018-01-13T04:04:42.022Z,33.75
2018-01-13T04:07:10.042Z,33.17
2018-01-13T04:09:38.826Z,31.75
2018-01-13T04:12:07.617Z,28.95
2018-01-13T04:14:36.363Z,30.73
2018-01-13T04:17:05.186Z,31.27
2018-01-13T04:19:34.015Z,32.38
2018-01-13T04:22:01.986Z,32.67
2018-01-13T04:24:29.980Z,31.60
2018-01-13T04:26:57.987Z,32.75
2018-01-13T04:29:26.767Z,32.30
2018-01-13T04:31:55.583Z,30.90
2018-01-13T04:34:23.597Z,32.70
2018-01-13T04:36:51.639Z,32.13
2018-01-13T04:39:19.653Z,34.67
2018-01-13T04:41:47.698Z,32.83
2018-01-13T04:44:15.724Z,33.88
2018-01-13T04:46:44.498Z,31.95
2018-01-13T04:49:13.260Z,30.33
2018-01-13T04:51:41.265Z,31.80
2018-01-13T04:54:10.062Z,31.42
2018-01-13T04:56:38.042Z,28.10
2018-01-13T04:59:06.055Z,29.30
2018-01-13T05:01:34.094Z,30.40
2018-01-13T05:04:02.082Z,32.08
2018-01-13T05:06:30.095Z,31.00
2018-01-13T05:08:58.878Z,31.23
2018-01-13T05:11:27.685Z,31.67
2018-01-13T05:13:55.663Z,29.50
2018-01-13T05:16:23.667Z,32.22
2018-01-13T05:18:51.690Z,29.60
2018-01-13T05:21:19.710Z,30.90
2018-01-13T05:23:47.709Z,29.05
2018-01-13T05:26:16.494Z,32.55
2018-01-13T05:28:44.508Z,30.58
2018-01-13T05:31:12.485Z,31.65
2018-01-13T05:33:40.503Z,30.55
2018-01-13T05:36:08.530Z,29.95
2018-01-13T05:38:36.557Z,30.35
2018-01-13T05:41:05.353Z,30.45
2018-01-13T05:43:34.106Z,32.67
2018-01-13T05:46:02.102Z,27.60
2018-01-13T05:48:30.871Z,29.05
2018-01-13T05:50:58.871Z,28.45
2018-01-13T05:53:26.871Z,31.20
2018-01-13T05:55:54.880Z,28.73
2018-01-13T05:58:22.867Z,30.50
2018-01-13T06:00:51.682Z,30.62
2018-01-13T06:03:19.709Z,29.35
2018-01-13T06:05:47.719Z,29.90
2018-01-13T06:08:15.730Z,28.25
2018-01-13T06:10:44.523Z,28.73
2018-01-13T06:13:12.538Z,29.25
2018-01-13T06:15:40.522Z,31.20
2018-01-13T06:18:08.491Z,31.92
2018-01-13T06:20:36.487Z,28.10
2018-01-13T06:23:04.509Z,30.35
2018-01-13T06:25:33.267Z,28.75
2018-01-13T06:28:01.303Z,28.27
2018-01-13T06:30:29.312Z,30.65
2018-01-13T06:32:57.311Z,29.33
2018-01-13T06:35:25.357Z,32.97
2018-01-13T06:37:54.121Z,31.25
2018-01-13T06:40:22.893Z,32.75
2018-01-13T06:42:50.924Z,32.85
2018-01-13T06:45:18.953Z,29.92
2018-01-13T06:47:46.969Z,32.05
2018-01-13T06:50:14.958Z,29.48
2018-01-13T06:52:42.993Z,31.37
2018-01-13T06:55:11.769Z,32.20
2018-01-13T06:57:39.758Z,30.30
2018-01-13T07:00:08.551Z,29.17
2018-01-13T07:02:36.528Z,29.92
2018-01-13T07:05:04.538Z,30.45
2018-01-13T07:07:32.586Z,31.55
2018-01-13T07:10:00.635Z,31.65
2018-01-13T07:12:28.686Z,31.08
2018-01-13T07:14:57.493Z,28.52
2018-01-13T07:17:25.489Z,31.60
2018-01-13T07:19:53.513Z,29.05
2018-01-13T07:22:22.261Z,33.20
2018-01-13T07:24:51.011Z,30.42
2018-01-13T07:27:19.007Z,30.35
2018-01-13T07:29:47.013Z,29.73
2018-01-13T07:32:14.983Z,32.85
2018-01-13T07:34:42.982Z,28.17
2018-01-13T07:37:11.237Z,30.37
2018-01-13T07:39:40.009Z,33.35
2018-01-13T07:42:08.023Z,32.97
2018-01-13T07:44:36.030Z,30.73
2018-01-13T07:47:04.060Z,31.45
2018-01-13T07:49:32.039Z,31.05
2018-01-13T07:52:00.033Z,30.98
2018-01-13T07:54:28.006Z,31.85
2018-01-13T07:56:56.785Z,30.95
2018-01-13T07:59:24.789Z,39.03
2018-01-13T08:01:52.796Z,34.10
2018-01-13T08:04:20.814Z,31.10
2018-01-13T08:06:48.861Z,32.80
2018-01-13T08:09:17.674Z,32.78
2018-01-13T08:11:45.662Z,31.05
2018-01-13T08:14:14.421Z,31.23
2018-01-13T08:16:42.424Z,31.80
2018-01-13T08:19:11.195Z,32.97
2018-01-13T08:21:39.189Z,105.53
2018-01-13T08:24:07.258Z,113.80
2018-01-13T08:26:36.046Z,74.10
2018-01-13T08:29:04.819Z,65.37
2018-01-13T08:31:32.830Z,59.08
2018-01-13T08:34:00.857Z,51.42
2018-01-13T08:36:28.831Z,42.83
2018-01-13T08:38:57.610Z,37.95
2018-01-13T08:41:25.614Z,36.30
2018-01-13T08:43:53.626Z,39.72
2018-01-13T08:46:21.633Z,37.35
2018-01-13T08:48:50.443Z,38.85
2018-01-13T08:51:18.469Z,33.30
2018-01-13T08:53:46.478Z,40.83
2018-01-13T08:56:14.478Z,39.30
2018-01-13T08:58:42.556Z,44.35
2018-01-13T09:01:11.383Z,44.17
2018-01-13T09:03:39.451Z,37.63
2018-01-13T09:06:07.510Z,41.97
2018-01-13T09:08:35.614Z,62.97
2018-01-13T09:11:04.413Z,46.22
2018-01-13T09:13:32.421Z,44.72
2018-01-13T09:16:00.453Z,57.97
2018-01-13T09:18:28.426Z,52.30
2018-01-13T09:20:56.379Z,48.47
2018-01-13T09:23:25.209Z,50.67
2018-01-13T09:25:53.278Z,58.65
2018-01-13T09:28:21.278Z,54.58
2018-01-13T09:30:49.306Z,50.20
2018-01-13T09:33:17.327Z,48.47
2018-01-13T09:35:45.341Z,48.65
2018-01-13T09:38:13.331Z,45.78
2018-01-13T09:40:41.343Z,54.38
2018-01-13T09:43:10.137Z,50.00
2018-01-13T09:45:38.948Z,53.40
2018-01-13T09:48:06.973Z,41.65
2018-01-13T09:50:34.998Z,45.58
2018-01-13T09:53:03.039Z,46.10
2018-01-13T09:55:31.817Z,40.55
2018-01-13T09:58:00.617Z,37.38
2018-01-13T10:00:29.401Z,35.28
2018-01-13T10:02:58.142Z,35.05
2018-01-13T10:05:26.158Z,32.95
2018-01-13T10:07:54.972Z,31.35
2018-01-13T10:10:23.007Z,31.10
2018-01-13T10:12:51.850Z,32.33
2018-01-13T10:15:19.826Z,30.00
2018-01-13T10:17:47.899Z,29.12
2018-01-13T10:20:16.004Z,28.95
2018-01-13T10:22:43.978Z,30.10
2018-01-13T10:25:12.774Z,30.02
2018-01-13T10:27:41.590Z,33.58
2018-01-13T10:30:09.566Z,29.17
2018-01-13T10:32:37.585Z,32.47
2018-01-13T10:35:05.618Z,30.65
2018-01-13T10:37:33.627Z,30.37
2018-01-13T10:40:02.418Z,31.30
2018-01-13T10:42:31.193Z,26.90
2018-01-13T10:44:59.180Z,30.23
2018-01-13T10:47:27.955Z,31.55
2018-01-13T10:49:55.985Z,30.20
2018-01-13T10:52:23.963Z,30.25
2018-01-13T10:54:51.946Z,29.00
2018-01-13T10:57:19.970Z,29.40
2018-01-13T10:59:47.946Z,27.50
2018-01-13T11:02:15.958Z,29.97
2018-01-13T11:04:43.990Z,28.60
2018-01-13T11:07:12.023Z,29.85
2018-01-13T11:09:40.799Z,28.48
2018-01-13T11:12:08.868Z,31.00
2018-01-13T11:14:36.870Z,34.28
2018-01-13T11:17:04.891Z,29.73
2018-01-13T11:19:32.932Z,27.10
2018-01-13T11:22:00.938Z,26.50
2018-01-13T11:24:28.910Z,28.23
2018-01-13T11:26:56.895Z,26.23
2018-01-13T11:29:24.911Z,26.00
2018-01-13T11:31:52.924Z,26.80
2018-01-13T11:34:20.954Z,24.30
2018-01-13T11:36:48.967Z,26.77
2018-01-13T11:39:16.995Z,26.48
2018-01-13T11:41:45.026Z,26.12
2018-01-13T11:44:13.795Z,25.88
2018-01-13T11:46:41.825Z,27.98
2018-01-13T11:49:09.837Z,26.05
2018-01-13T11:51:37.871Z,27.75
2018-01-13T11:54:05.866Z,26.60
2018-01-13T11:56:33.952Z,28.15
2018-01-13T11:59:02.727Z,27.83
2018-01-13T12:01:30.783Z,27.07
2018-01-13T12:03:58.802Z,28.15
2018-01-13T12:06:26.811Z,27.70
2018-01-13T12:08:54.820Z,27.60
2018-01-13T12:11:23.583Z,29.00
2018-01-13T12:13:51.605Z,28.43
2018-01-13T12:16:19.662Z,28.25
2018-01-13T12:18:48.438Z,26.87
2018-01-13T12:21:17.222Z,33.97
2018-01-13T12:23:45.957Z,29.55
2018-01-13T12:26:13.953Z,31.70
2018-01-13T12:28:41.948Z,32.83
2018-01-13T12:31:10.754Z,30.52
2018-01-13T12:33:38.783Z,29.10
2018-01-13T12:36:06.822Z,27.60
2018-01-13T12:38:34.839Z,29.27
2018-01-13T12:41:02.933Z,30.60
2018-01-13T12:43:31.798Z,28.35
2018-01-13T12:45:59.826Z,28.27
2018-01-13T12:48:27.827Z,27.52
2018-01-13T12:50:55.838Z,29.42
2018-01-13T12:53:23.834Z,29.58
2018-01-13T12:55:51.849Z,28.20
2018-01-13T12:58:19.874Z,29.37
2018-01-13T13:00:47.882Z,30.40
2018-01-13T13:03:15.934Z,29.40
2018-01-13T13:05:43.982Z,30.48
2018-01-13T13:08:11.974Z,42.20
2018-01-13T13:10:39.998Z,37.83
2018-01-13T13:13:08.025Z,35.40
2018-01-13T13:15:36.809Z,37.43
2018-01-13T13:18:04.878Z,43.90
2018-01-13T13:20:32.886Z,45.77
2018-01-13T13:23:01.666Z,42.33
2018-01-13T13:25:30.471Z,50.10
2018-01-13T13:27:59.326Z,44.33
2018-01-13T13:30:27.365Z,47.73
2018-01-13T13:32:55.419Z,43.00
2018-01-13T13:35:23.422Z,42.80
2018-01-13T13:37:51.436Z,39.00
2018-01-13T13:40:20.231Z,37.13
2018-01-13T13:42:48.996Z,37.80
2018-01-13T13:45:17.038Z,36.07
2018-01-13T13:47:45.059Z,38.23
2018-01-13T13:50:13.882Z,39.37
2018-01-13T13:52:41.886Z,36.10
2018-01-13T13:55:09.887Z,46.20
2018-01-13T13:57:38.657Z,41.63
2018-01-13T14:00:08.487Z,39.10
2018-01-13T14:02:36.634Z,38.70
2018-01-13T14:05:04.669Z,32.50
2018-01-13T14:07:32.691Z,43.33
2018-01-13T14:10:01.448Z,34.50
2018-01-13T14:12:29.477Z,34.27
2018-01-13T14:14:58.028Z,29.87
2018-01-13T14:17:25.578Z,27.87
2018-01-13T14:19:53.579Z,26.87
2018-01-13T14:22:21.623Z,25.53
2018-01-13T14:24:50.433Z,23.83
2018-01-13T14:27:18.415Z,25.90
2018-01-13T14:29:46.426Z,24.40
2018-01-13T14:32:14.458Z,25.03
2018-01-13T14:34:42.451Z,26.90
2018-01-13T14:37:10.453Z,25.40
2018-01-13T14:39:38.459Z,27.37
2018-01-13T14:42:06.498Z,25.90
2018-01-13T14:44:34.506Z,28.33
2018-01-13T14:47:02.582Z,26.60
2018-01-13T14:49:30.622Z,29.60
2018-01-13T14:51:59.383Z,28.03
2018-01-13T14:54:27.393Z,29.47
2018-01-13T14:56:55.376Z,28.33
2018-01-13T14:59:23.417Z,28.57
2018-01-13T15:01:52.219Z,28.70
2018-01-13T15:04:20.198Z,28.73
2018-01-13T15:06:48.251Z,30.93
2018-01-13T15:09:17.045Z,29.60
2018-01-13T15:11:45.145Z,29.37
2018-01-13T15:14:13.147Z,31.77
2018-01-13T15:16:41.158Z,28.87
2018-01-13T15:19:09.193Z,31.07
2018-01-13T15:21:37.177Z,32.90
2018-01-13T15:24:05.955Z,32.50
2018-01-13T15:26:33.946Z,32.03
2018-01-13T15:29:01.944Z,32.70
2018-01-13T15:31:29.965Z,29.83
2018-01-13T15:33:58.751Z,41.87
2018-01-13T15:36:26.794Z,60.70
2018-01-13T15:38:54.818Z,57.90
2018-01-13T15:41:22.849Z,48.00
2018-01-13T15:43:50.885Z,43.77
2018-01-13T15:46:18.906Z,40.80
2018-01-13T15:48:47.680Z,69.47
2018-01-13T15:51:15.698Z,56.87
2018-01-13T15:53:43.751Z,64.53
2018-01-13T15:56:12.557Z,80.17
2018-01-13T15:58:40.574Z,66.70
2018-01-13T16:01:08.611Z,54.47
2018-01-13T16:03:36.599Z,46.30
2018-01-13T16:06:04.646Z,103.70
2018-01-13T16:08:32.662Z,68.03
2018-01-13T16:11:00.686Z,56.07
2018-01-13T16:13:28.725Z,85.50
2018-01-13T16:15:57.522Z,99.00
2018-01-13T16:18:25.539Z,75.77
2018-01-13T16:20:53.543Z,75.60
2018-01-13T16:23:22.342Z,57.83
2018-01-13T16:25:50.358Z,50.77
2018-01-13T16:28:18.378Z,43.47
2018-01-13T16:30:47.173Z,38.55
2018-01-13T16:33:15.176Z,53.57
2018-01-13T16:35:43.187Z,65.10
2018-01-13T16:38:11.194Z,97.77
2018-01-13T16:40:39.202Z,69.80
2018-01-13T16:43:07.231Z,64.93
2018-01-13T16:45:35.242Z,47.43
2018-01-13T16:48:03.274Z,37.60
2018-01-13T16:50:31.284Z,38.13
2018-01-13T16:52:59.321Z,39.30
2018-01-13T16:55:27.330Z,40.90
2018-01-13T16:57:55.355Z,37.40
2018-01-13T17:00:23.359Z,35.63
2018-01-13T17:02:51.430Z,33.67
2018-01-13T17:05:19.473Z,33.80
2018-01-13T17:07:47.470Z,38.83
2018-01-13T17:10:15.487Z,50.27
2018-01-13T17:12:43.510Z,49.30
2018-01-13T17:15:12.308Z,43.70
2018-01-13T17:17:40.301Z,38.13
2018-01-13T17:20:09.187Z,36.97
2018-01-13T17:22:38.024Z,35.20
2018-01-13T17:25:06.041Z,36.28
2018-01-13T17:27:34.054Z,35.63
2018-01-13T17:30:02.098Z,41.45
2018-01-13T17:32:30.865Z,44.33
2018-01-13T17:34:58.897Z,76.70
2018-01-13T17:37:26.929Z,57.27
2018-01-13T17:39:55.759Z,55.37
2018-01-13T17:42:24.574Z,48.20
2018-01-13T17:44:52.601Z,46.83
2018-01-13T17:47:20.630Z,44.30
2018-01-13T17:49:48.670Z,38.77
2018-01-13T17:52:16.687Z,41.72
2018-01-13T17:54:45.501Z,40.17
2018-01-13T17:57:13.471Z,38.43
2018-01-13T17:59:41.498Z,37.60
2018-01-13T18:02:09.533Z,39.57
2018-01-13T18:04:37.526Z,38.47
2018-01-13T18:07:05.547Z,44.80
2018-01-13T18:09:33.609Z,48.90
2018-01-13T18:12:01.690Z,46.37
2018-01-13T18:14:29.689Z,43.07
2018-01-13T18:16:58.475Z,41.00
2018-01-13T18:19:26.506Z,35.85
2018-01-13T18:21:54.635Z,36.28
2018-01-13T18:24:22.665Z,34.67
2018-01-13T18:26:50.690Z,35.50
2018-01-13T18:29:18.729Z,36.27
2018-01-13T18:31:46.723Z,39.20
2018-01-13T18:34:14.779Z,40.53
2018-01-13T18:36:42.798Z,40.67
2018-01-13T18:39:10.818Z,38.60
2018-01-13T18:41:38.845Z,39.72
2018-01-13T18:44:06.843Z,40.80
2018-01-13T18:46:34.862Z,38.35
2018-01-13T18:49:03.639Z,37.50
2018-01-13T18:51:32.424Z,37.75
2018-01-13T18:54:01.219Z,45.43
2018-01-13T18:56:29.987Z,44.58
2018-01-13T18:58:57.990Z,45.38
2018-01-13T19:01:26.002Z,42.50
2018-01-13T19:03:53.986Z,40.47
2018-01-13T19:06:21.999Z,44.75
2018-01-13T19:08:50.007Z,39.55
2018-01-13T19:11:18.002Z,39.85
2018-01-13T19:13:46.050Z,39.28
2018-01-13T19:16:14.075Z,39.88
2018-01-13T19:18:42.861Z,38.47
2018-01-13T19:21:11.633Z,36.05
2018-01-13T19:23:39.666Z,34.88
2018-01-13T19:26:07.656Z,37.67
2018-01-13T19:28:35.674Z,35.65
2018-01-13T19:31:03.697Z,32.85
2018-01-13T19:33:31.761Z,32.25
2018-01-13T19:35:59.748Z,32.53
2018-01-13T19:38:27.753Z,33.67
2018-01-13T19:40:55.754Z,33.08
2018-01-13T19:43:23.741Z,32.25
2018-01-13T19:45:51.770Z,32.20
2018-01-13T19:48:19.865Z,33.03
2018-01-13T19:50:47.885Z,31.75
2018-01-13T19:53:16.664Z,32.85
2018-01-13T19:55:45.446Z,33.75
2018-01-13T19:58:13.465Z,32.88
2018-01-13T20:00:41.484Z,32.40
2018-01-13T20:03:09.495Z,29.60
2018-01-13T20:05:37.528Z,32.70
2018-01-13T20:08:06.312Z,30.98
2018-01-13T20:10:34.314Z,30.08
2018-01-13T20:13:02.297Z,31.52
2018-01-13T20:15:30.302Z,31.48
2018-01-13T20:17:58.311Z,29.65
2018-01-13T20:20:27.055Z,29.90
2018-01-13T20:22:55.074Z,30.37
2018-01-13T20:25:23.078Z,32.40
2018-01-13T20:27:51.087Z,32.67
2018-01-13T20:30:19.130Z,31.33
2018-01-13T20:32:47.162Z,31.83
2018-01-13T20:35:15.185Z,31.83
2018-01-13T20:37:43.205Z,30.33
2018-01-13T20:40:11.209Z,30.27
2018-01-13T20:42:39.268Z,29.12
2018-01-13T20:45:07.306Z,31.02
2018-01-13T20:47:35.327Z,30.00
2018-01-13T20:50:03.347Z,31.58
2018-01-13T20:52:31.416Z,32.08
2018-01-13T20:54:59.412Z,29.27
2018-01-13T20:57:27.394Z,29.05
2018-01-13T20:59:55.398Z,30.95
2018-01-13T21:02:23.414Z,28.98
2018-01-13T21:04:51.417Z,30.45
2018-01-13T21:07:19.454Z,30.37
2018-01-13T21:09:47.465Z,29.98
2018-01-13T21:12:15.496Z,30.23
2018-01-13T21:14:43.519Z,30.12
2018-01-13T21:17:11.535Z,31.25
2018-01-13T21:19:39.574Z,28.17
2018-01-13T21:22:08.326Z,28.58
2018-01-13T21:24:36.370Z,26.80
2018-01-13T21:27:04.381Z,29.30
2018-01-13T21:29:32.395Z,25.92
2018-01-13T21:32:00.431Z,29.48
2018-01-13T21:34:29.216Z,25.95
2018-01-13T21:36:57.989Z,27.17
2018-01-13T21:39:25.989Z,23.65
2018-01-13T21:41:54.751Z,26.30
2018-01-13T21:44:22.766Z,24.67
2018-01-13T21:46:50.729Z,25.27
2018-01-13T21:49:18.727Z,23.05
2018-01-13T21:51:46.762Z,26.05
2018-01-13T21:54:14.747Z,24.63
2018-01-13T21:56:42.735Z,24.15
2018-01-13T21:59:10.740Z,24.35
2018-01-13T22:01:38.809Z,23.33
2018-01-13T22:04:06.828Z,23.50
2018-01-13T22:06:34.885Z,23.17
2018-01-13T22:09:04.870Z,24.20
2018-01-13T22:11:32.874Z,24.37
2018-01-13T22:14:00.898Z,24.17
2018-01-13T22:16:28.934Z,23.45
2018-01-13T22:18:56.949Z,24.48
2018-01-13T22:21:24.927Z,24.73
2018-01-13T22:23:53.722Z,25.37
2018-01-13T22:26:22.501Z,24.25
2018-01-13T22:28:51.250Z,23.83
2018-01-13T22:31:19.248Z,23.65
2018-01-13T22:33:47.254Z,23.70
2018-01-13T22:36:15.301Z,23.42
2018-01-13T22:38:44.076Z,21.37
2018-01-13T22:41:12.101Z,24.20
2018-01-13T22:43:40.138Z,24.25
2018-01-13T22:46:08.941Z,22.98
2018-01-13T22:48:36.926Z,24.00
2018-01-13T22:51:04.954Z,26.20
2018-01-13T22:53:33.758Z,21.70
2018-01-13T22:56:01.796Z,24.45
2018-01-13T22:58:29.827Z,23.12
2018-01-13T23:00:57.818Z,23.73
2018-01-13T23:03:25.849Z,23.90
2018-01-13T23:05:53.870Z,23.70
2018-01-13T23:08:21.894Z,23.23
2018-01-13T23:10:49.901Z,24.73
2018-01-13T23:13:17.928Z,25.10
2018-01-13T23:15:45.998Z,22.30
2018-01-13T23:18:13.992Z,22.80
2018-01-13T23:20:42.013Z,23.90
2018-01-13T23:23:10.777Z,22.98
2018-01-13T23:25:38.785Z,21.90
2018-01-13T23:28:07.567Z,25.00
2018-01-13T23:30:36.361Z,23.85
2018-01-13T23:33:04.355Z,22.10
2018-01-13T23:35:32.377Z,21.92
2018-01-13T23:38:00.388Z,20.80
2018-01-13T23:40:28.471Z,24.75
2018-01-13T23:42:56.482Z,25.15
2018-01-13T23:45:24.475Z,22.65
2018-01-13T23:47:53.273Z,21.60
2018-01-13T23:50:21.314Z,21.50
2018-01-13T23:52:49.334Z,21.62
2018-01-13T23:55:17.327Z,26.58
2018-01-13T23:57:45.322Z,30.65
